logo dgac
Miércoles 19 de Junio del 2024
Buscar por aerodromo o helipuerto
Ingrese nombre de aeródromo, localidad o designador OACI:
TAF: TAF SCHR 191007Z 1912/2000 06006KT 9999 FEW015 SCT038 TNM04/2000Z TX00/1918Z BECMG 1919/1921 VRB02KT SCT050
TAF del 19/06/2024 a las 10:07 UTC
Para mayor información visite www.meteochile.gob.cl
Período de validez: desde el 19 a las 12:00 UTC hasta el 20 a las 00:00 UTC
Viento: dirección 060 grados, velocidad 6 nudos
Visibilidad: 10 km o más
Nubes: Escasa nubosidad a 1500 pies sobre el nivel del aeródromo
Nubes: Nubosidad parcial a 3800 pies sobre el nivel del aeródromo
Nan: TNM04/2000Z
Temperatura máxima: 0ºC el 19 a las 18:00 UTC
Se espera un cambio entre las 19:00 UTC del 19 y las 21:00 UTC del 19, :
Viento: dirección variable, velocidad 2 nudos
Nubes: Nubosidad parcial a 5000 pies sobre el nivel del aeródromo